sensor_id;sensor_type;location;lat;lon;timestamp;P1;durP1;ratioP1;P2;durP2;ratioP2
2854;SDS011;1435;49.472;10.940;2023-08-01T00:04:32;5.60;;;5.10;;
2854;SDS011;1435;49.472;10.940;2023-08-01T00:09:35;5.87;;;5.20;;
2854;SDS011;1435;49.472;10.940;2023-08-01T00:14:37;7.57;;;4.87;;
2854;SDS011;1435;49.472;10.940;2023-08-01T00:19:38;5.13;;;4.60;;
2854;SDS011;1435;49.472;10.940;2023-08-01T00:24:42;6.30;;;4.50;;
2854;SDS011;1435;49.472;10.940;2023-08-01T00:29:44;6.20;;;4.87;;
2854;SDS011;1435;49.472;10.940;2023-08-01T00:34:46;5.93;;;4.97;;
2854;SDS011;1435;49.472;10.940;2023-08-01T00:39:49;5.30;;;4.80;;
2854;SDS011;1435;49.472;10.940;2023-08-01T00:44:51;6.47;;;5.17;;
2854;SDS011;1435;49.472;10.940;2023-08-01T00:49:54;6.43;;;5.73;;
2854;SDS011;1435;49.472;10.940;2023-08-01T00:54:57;5.87;;;5.30;;
2854;SDS011;1435;49.472;10.940;2023-08-01T00:59:58;7.43;;;5.17;;
2854;SDS011;1435;49.472;10.940;2023-08-01T01:05:00;6.30;;;5.50;;
2854;SDS011;1435;49.472;10.940;2023-08-01T01:10:05;5.80;;;4.97;;
2854;SDS011;1435;49.472;10.940;2023-08-01T01:15:07;7.63;;;4.87;;
2854;SDS011;1435;49.472;10.940;2023-08-01T01:20:10;5.77;;;4.30;;
2854;SDS011;1435;49.472;10.940;2023-08-01T01:25:13;5.60;;;4.23;;
2854;SDS011;1435;49.472;10.940;2023-08-01T01:30:16;4.97;;;4.47;;
2854;SDS011;1435;49.472;10.940;2023-08-01T01:35:19;6.10;;;4.37;;
2854;SDS011;1435;49.472;10.940;2023-08-01T01:40:22;5.80;;;4.90;;
2854;SDS011;1435;49.472;10.940;2023-08-01T01:45:24;7.27;;;4.30;;
2854;SDS011;1435;49.472;10.940;2023-08-01T01:50:26;5.97;;;4.00;;
2854;SDS011;1435;49.472;10.940;2023-08-01T01:55:29;5.77;;;4.53;;
2854;SDS011;1435;49.472;10.940;2023-08-01T02:00:30;4.10;;;3.73;;
2854;SDS011;1435;49.472;10.940;2023-08-01T02:05:32;6.00;;;4.33;;
2854;SDS011;1435;49.472;10.940;2023-08-01T02:10:35;4.83;;;3.87;;
2854;SDS011;1435;49.472;10.940;2023-08-01T02:15:37;6.60;;;4.53;;
2854;SDS011;1435;49.472;10.940;2023-08-01T02:20:38;4.30;;;3.70;;
2854;SDS011;1435;49.472;10.940;2023-08-01T02:25:42;5.50;;;4.10;;
2854;SDS011;1435;49.472;10.940;2023-08-01T02:30:43;4.03;;;3.63;;
2854;SDS011;1435;49.472;10.940;2023-08-01T02:35:45;8.37;;;4.83;;
2854;SDS011;1435;49.472;10.940;2023-08-01T02:40:48;5.20;;;3.87;;
2854;SDS011;1435;49.472;10.940;2023-08-01T02:45:50;6.43;;;4.43;;
2854;SDS011;1435;49.472;10.940;2023-08-01T02:50:52;4.97;;;4.43;;
2854;SDS011;1435;49.472;10.940;2023-08-01T02:55:55;4.40;;;3.73;;
2854;SDS011;1435;49.472;10.940;2023-08-01T03:00:57;5.00;;;4.10;;
2854;SDS011;1435;49.472;10.940;2023-08-01T03:05:58;5.63;;;4.43;;
2854;SDS011;1435;49.472;10.940;2023-08-01T03:11:02;5.57;;;4.80;;
2854;SDS011;1435;49.472;10.940;2023-08-01T03:16:03;6.30;;;4.60;;
2854;SDS011;1435;49.472;10.940;2023-08-01T03:21:05;6.10;;;4.20;;
2854;SDS011;1435;49.472;10.940;2023-08-01T03:26:08;4.97;;;3.90;;
2854;SDS011;1435;49.472;10.940;2023-08-01T03:31:10;6.33;;;4.17;;
2854;SDS011;1435;49.472;10.940;2023-08-01T03:36:12;4.63;;;4.23;;
2854;SDS011;1435;49.472;10.940;2023-08-01T03:41:15;7.03;;;5.47;;
2854;SDS011;1435;49.472;10.940;2023-08-01T03:46:16;5.60;;;4.53;;
2854;SDS011;1435;49.472;10.940;2023-08-01T03:51:18;4.83;;;4.40;;
2854;SDS011;1435;49.472;10.940;2023-08-01T03:56:22;4.90;;;4.40;;
2854;SDS011;1435;49.472;10.940;2023-08-01T04:01:23;6.10;;;4.27;;
2854;SDS011;1435;49.472;10.940;2023-08-01T04:06:25;6.07;;;4.03;;
2854;SDS011;1435;49.472;10.940;2023-08-01T04:11:28;5.33;;;4.80;;
2854;SDS011;1435;49.472;10.940;2023-08-01T04:16:30;5.03;;;4.53;;
2854;SDS011;1435;49.472;10.940;2023-08-01T04:21:32;4.90;;;4.27;;
2854;SDS011;1435;49.472;10.940;2023-08-01T04:26:35;4.60;;;4.20;;
2854;SDS011;1435;49.472;10.940;2023-08-01T04:31:37;6.47;;;4.53;;
2854;SDS011;1435;49.472;10.940;2023-08-01T04:36:39;8.40;;;5.20;;
2854;SDS011;1435;49.472;10.940;2023-08-01T04:41:42;7.00;;;4.70;;
2854;SDS011;1435;49.472;10.940;2023-08-01T04:46:43;5.47;;;4.30;;
2854;SDS011;1435;49.472;10.940;2023-08-01T04:51:47;7.60;;;4.50;;
2854;SDS011;1435;49.472;10.940;2023-08-01T04:56:50;4.70;;;4.20;;
2854;SDS011;1435;49.472;10.940;2023-08-01T05:01:52;4.10;;;3.77;;
2854;SDS011;1435;49.472;10.940;2023-08-01T05:06:54;4.60;;;3.90;;
2854;SDS011;1435;49.472;10.940;2023-08-01T05:11:57;5.00;;;4.50;;
2854;SDS011;1435;49.472;10.940;2023-08-01T05:16:58;5.63;;;4.27;;
2854;SDS011;1435;49.472;10.940;2023-08-01T05:22:00;7.87;;;4.90;;
2854;SDS011;1435;49.472;10.940;2023-08-01T05:27:03;5.00;;;4.30;;
2854;SDS011;1435;49.472;10.940;2023-08-01T05:32:06;4.93;;;4.40;;
2854;SDS011;1435;49.472;10.940;2023-08-01T05:37:08;5.23;;;4.40;;
2854;SDS011;1435;49.472;10.940;2023-08-01T05:42:11;5.23;;;4.47;;
2854;SDS011;1435;49.472;10.940;2023-08-01T05:47:12;8.20;;;5.80;;
2854;SDS011;1435;49.472;10.940;2023-08-01T05:52:14;4.83;;;4.33;;
2854;SDS011;1435;49.472;10.940;2023-08-01T05:57:17;6.60;;;5.20;;
2854;SDS011;1435;49.472;10.940;2023-08-01T06:02:19;7.97;;;4.50;;
2854;SDS011;1435;49.472;10.940;2023-08-01T06:07:20;5.67;;;4.97;;
2854;SDS011;1435;49.472;10.940;2023-08-01T06:12:24;5.50;;;4.37;;
2854;SDS011;1435;49.472;10.940;2023-08-01T06:17:26;5.67;;;4.47;;
2854;SDS011;1435;49.472;10.940;2023-08-01T06:22:27;5.80;;;4.37;;
2854;SDS011;1435;49.472;10.940;2023-08-01T06:27:30;7.77;;;5.33;;
2854;SDS011;1435;49.472;10.940;2023-08-01T06:32:32;6.17;;;4.20;;
2854;SDS011;1435;49.472;10.940;2023-08-01T06:37:34;4.77;;;4.30;;
2854;SDS011;1435;49.472;10.940;2023-08-01T06:42:37;6.40;;;5.30;;
2854;SDS011;1435;49.472;10.940;2023-08-01T06:47:38;5.70;;;4.63;;
2854;SDS011;1435;49.472;10.940;2023-08-01T06:52:40;7.53;;;4.77;;
2854;SDS011;1435;49.472;10.940;2023-08-01T06:57:43;5.60;;;4.20;;
2854;SDS011;1435;49.472;10.940;2023-08-01T07:02:45;7.13;;;4.90;;
2854;SDS011;1435;49.472;10.940;2023-08-01T07:07:46;7.40;;;4.60;;
2854;SDS011;1435;49.472;10.940;2023-08-01T07:12:49;6.67;;;5.17;;
2854;SDS011;1435;49.472;10.940;2023-08-01T07:17:51;6.13;;;4.73;;
2854;SDS011;1435;49.472;10.940;2023-08-01T07:22:53;5.53;;;4.60;;
2854;SDS011;1435;49.472;10.940;2023-08-01T07:27:56;5.33;;;4.70;;
2854;SDS011;1435;49.472;10.940;2023-08-01T07:32:57;7.60;;;5.67;;
2854;SDS011;1435;49.472;10.940;2023-08-01T07:37:59;7.83;;;5.90;;
2854;SDS011;1435;49.472;10.940;2023-08-01T07:43:02;5.67;;;4.80;;
2854;SDS011;1435;49.472;10.940;2023-08-01T07:48:04;6.23;;;4.70;;
2854;SDS011;1435;49.472;10.940;2023-08-01T07:53:06;5.40;;;4.03;;
2854;SDS011;1435;49.472;10.940;2023-08-01T07:58:09;7.07;;;4.77;;
2854;SDS011;1435;49.472;10.940;2023-08-01T08:03:10;12.83;;;5.33;;
2854;SDS011;1435;49.472;10.940;2023-08-01T08:08:14;5.17;;;4.67;;
2854;SDS011;1435;49.472;10.940;2023-08-01T08:13:17;6.23;;;4.87;;
2854;SDS011;1435;49.472;10.940;2023-08-01T08:18:18;7.83;;;4.60;;
2854;SDS011;1435;49.472;10.940;2023-08-01T08:23:20;5.17;;;4.67;;
2854;SDS011;1435;49.472;10.940;2023-08-01T08:28:28;5.40;;;4.37;;
2854;SDS011;1435;49.472;10.940;2023-08-01T08:33:32;6.10;;;5.13;;
2854;SDS011;1435;49.472;10.940;2023-08-01T08:38:34;6.30;;;4.20;;
2854;SDS011;1435;49.472;10.940;2023-08-01T08:43:37;6.30;;;4.57;;
2854;SDS011;1435;49.472;10.940;2023-08-01T08:48:39;5.43;;;4.03;;
2854;SDS011;1435;49.472;10.940;2023-08-01T08:53:42;5.07;;;3.70;;
2854;SDS011;1435;49.472;10.940;2023-08-01T08:58:48;4.53;;;3.90;;
2854;SDS011;1435;49.472;10.940;2023-08-01T09:03:50;5.50;;;4.03;;
2854;SDS011;1435;49.472;10.940;2023-08-01T09:08:55;5.40;;;4.40;;
2854;SDS011;1435;49.472;10.940;2023-08-01T09:14:13;6.10;;;5.50;;
2854;SDS011;1435;49.472;10.940;2023-08-01T09:19:16;5.10;;;4.60;;
2854;SDS011;1435;49.472;10.940;2023-08-01T09:24:19;6.13;;;5.53;;
2854;SDS011;1435;49.472;10.940;2023-08-01T09:29:22;6.53;;;4.97;;
2854;SDS011;1435;49.472;10.940;2023-08-01T09:34:26;6.10;;;4.57;;
2854;SDS011;1435;49.472;10.940;2023-08-01T09:39:28;8.00;;;4.93;;
2854;SDS011;1435;49.472;10.940;2023-08-01T09:44:33;7.70;;;5.20;;
2854;SDS011;1435;49.472;10.940;2023-08-01T09:49:36;6.13;;;5.50;;
2854;SDS011;1435;49.472;10.940;2023-08-01T09:54:49;7.40;;;4.90;;
2854;SDS011;1435;49.472;10.940;2023-08-01T09:59:52;7.27;;;4.40;;
2854;SDS011;1435;49.472;10.940;2023-08-01T10:04:54;5.77;;;4.67;;
2854;SDS011;1435;49.472;10.940;2023-08-01T10:09:58;5.27;;;4.43;;
2854;SDS011;1435;49.472;10.940;2023-08-01T10:15:02;6.03;;;4.90;;
2854;SDS011;1435;49.472;10.940;2023-08-01T10:20:06;4.80;;;4.30;;
2854;SDS011;1435;49.472;10.940;2023-08-01T10:25:09;5.23;;;4.27;;
2854;SDS011;1435;49.472;10.940;2023-08-01T10:30:13;5.60;;;3.90;;
2854;SDS011;1435;49.472;10.940;2023-08-01T10:35:14;5.93;;;3.90;;
2854;SDS011;1435;49.472;10.940;2023-08-01T10:40:16;4.67;;;3.70;;
2854;SDS011;1435;49.472;10.940;2023-08-01T10:45:22;3.83;;;3.43;;
2854;SDS011;1435;49.472;10.940;2023-08-01T10:50:27;3.40;;;3.10;;
2854;SDS011;1435;49.472;10.940;2023-08-01T10:55:37;3.13;;;2.60;;
2854;SDS011;1435;49.472;10.940;2023-08-01T11:00:42;2.87;;;2.57;;
2854;SDS011;1435;49.472;10.940;2023-08-01T11:05:44;4.07;;;2.20;;
2854;SDS011;1435;49.472;10.940;2023-08-01T11:10:57;3.33;;;2.60;;
2854;SDS011;1435;49.472;10.940;2023-08-01T11:16:02;3.30;;;2.57;;
2854;SDS011;1435;49.472;10.940;2023-08-01T11:21:04;2.30;;;2.10;;
2854;SDS011;1435;49.472;10.940;2023-08-01T11:26:06;2.20;;;1.87;;
2854;SDS011;1435;49.472;10.940;2023-08-01T11:31:14;3.03;;;2.77;;
2854;SDS011;1435;49.472;10.940;2023-08-01T11:36:15;2.57;;;2.23;;
2854;SDS011;1435;49.472;10.940;2023-08-01T11:41:17;2.67;;;2.43;;
2854;SDS011;1435;49.472;10.940;2023-08-01T11:46:20;1.87;;;1.23;;
2854;SDS011;1435;49.472;10.940;2023-08-01T11:51:22;2.13;;;1.10;;
2854;SDS011;1435;49.472;10.940;2023-08-01T11:56:24;1.90;;;1.10;;
2854;SDS011;1435;49.472;10.940;2023-08-01T12:01:27;1.30;;;1.10;;
2854;SDS011;1435;49.472;10.940;2023-08-01T12:06:30;1.40;;;1.20;;
2854;SDS011;1435;49.472;10.940;2023-08-01T12:11:34;1.90;;;1.10;;
2854;SDS011;1435;49.472;10.940;2023-08-01T12:16:37;1.00;;;0.90;;
2854;SDS011;1435;49.472;10.940;2023-08-01T12:21:40;1.00;;;0.90;;
2854;SDS011;1435;49.472;10.940;2023-08-01T12:26:41;2.73;;;1.30;;
2854;SDS011;1435;49.472;10.940;2023-08-01T12:31:45;1.37;;;1.27;;
2854;SDS011;1435;49.472;10.940;2023-08-01T12:36:46;1.50;;;0.87;;
2854;SDS011;1435;49.472;10.940;2023-08-01T12:41:48;1.20;;;0.77;;
2854;SDS011;1435;49.472;10.940;2023-08-01T12:46:51;1.40;;;1.20;;
2854;SDS011;1435;49.472;10.940;2023-08-01T12:51:53;1.57;;;0.93;;
2854;SDS011;1435;49.472;10.940;2023-08-01T12:56:54;1.03;;;0.93;;
2854;SDS011;1435;49.472;10.940;2023-08-01T13:01:57;1.23;;;0.93;;
2854;SDS011;1435;49.472;10.940;2023-08-01T13:06:59;1.47;;;1.00;;
2854;SDS011;1435;49.472;10.940;2023-08-01T13:12:01;1.27;;;0.90;;
2854;SDS011;1435;49.472;10.940;2023-08-01T13:17:04;0.83;;;0.80;;
2854;SDS011;1435;49.472;10.940;2023-08-01T13:22:06;1.60;;;1.20;;
2854;SDS011;1435;49.472;10.940;2023-08-01T13:27:08;1.30;;;1.00;;
2854;SDS011;1435;49.472;10.940;2023-08-01T13:32:11;1.60;;;1.10;;
2854;SDS011;1435;49.472;10.940;2023-08-01T13:37:13;2.30;;;0.83;;
2854;SDS011;1435;49.472;10.940;2023-08-01T13:42:15;1.90;;;1.10;;
2854;SDS011;1435;49.472;10.940;2023-08-01T13:47:18;1.57;;;1.20;;
2854;SDS011;1435;49.472;10.940;2023-08-01T13:52:19;1.03;;;1.03;;
2854;SDS011;1435;49.472;10.940;2023-08-01T13:57:21;1.30;;;1.20;;
2854;SDS011;1435;49.472;10.940;2023-08-01T14:02:25;2.07;;;1.53;;
2854;SDS011;1435;49.472;10.940;2023-08-01T14:07:29;2.50;;;1.47;;
2854;SDS011;1435;49.472;10.940;2023-08-01T14:12:31;1.70;;;0.97;;
2854;SDS011;1435;49.472;10.940;2023-08-01T14:17:34;1.10;;;0.70;;
2854;SDS011;1435;49.472;10.940;2023-08-01T14:22:35;1.03;;;0.70;;
2854;SDS011;1435;49.472;10.940;2023-08-01T14:27:37;1.00;;;0.67;;
2854;SDS011;1435;49.472;10.940;2023-08-01T14:32:40;1.80;;;0.83;;
2854;SDS011;1435;49.472;10.940;2023-08-01T14:37:41;2.57;;;1.00;;
2854;SDS011;1435;49.472;10.940;2023-08-01T14:42:48;1.20;;;1.03;;
2854;SDS011;1435;49.472;10.940;2023-08-01T14:47:51;0.93;;;0.90;;
2854;SDS011;1435;49.472;10.940;2023-08-01T14:52:53;2.27;;;1.30;;
2854;SDS011;1435;49.472;10.940;2023-08-01T14:57:54;1.30;;;1.20;;
2854;SDS011;1435;49.472;10.940;2023-08-01T15:02:58;1.10;;;1.00;;
2854;SDS011;1435;49.472;10.940;2023-08-01T15:07:59;1.40;;;1.30;;
2854;SDS011;1435;49.472;10.940;2023-08-01T15:13:05;1.80;;;1.67;;
2854;SDS011;1435;49.472;10.940;2023-08-01T15:18:08;2.30;;;1.40;;
2854;SDS011;1435;49.472;10.940;2023-08-01T15:23:10;2.90;;;1.43;;
2854;SDS011;1435;49.472;10.940;2023-08-01T15:28:11;1.40;;;1.20;;
2854;SDS011;1435;49.472;10.940;2023-08-01T15:33:15;2.10;;;1.77;;
2854;SDS011;1435;49.472;10.940;2023-08-01T15:38:17;1.53;;;1.43;;
2854;SDS011;1435;49.472;10.940;2023-08-01T15:43:19;1.57;;;1.30;;
2854;SDS011;1435;49.472;10.940;2023-08-01T15:48:22;1.33;;;1.20;;
2854;SDS011;1435;49.472;10.940;2023-08-01T15:53:24;4.03;;;1.80;;
2854;SDS011;1435;49.472;10.940;2023-08-01T15:58:26;1.80;;;1.53;;
2854;SDS011;1435;49.472;10.940;2023-08-01T16:03:30;1.53;;;1.43;;
2854;SDS011;1435;49.472;10.940;2023-08-01T16:08:31;1.70;;;1.60;;
2854;SDS011;1435;49.472;10.940;2023-08-01T16:13:33;4.37;;;1.53;;
2854;SDS011;1435;49.472;10.940;2023-08-01T16:18:36;2.20;;;1.63;;
2854;SDS011;1435;49.472;10.940;2023-08-01T16:23:38;2.60;;;1.67;;
2854;SDS011;1435;49.472;10.940;2023-08-01T16:28:39;3.67;;;1.60;;
2854;SDS011;1435;49.472;10.940;2023-08-01T16:33:42;1.20;;;1.03;;
2854;SDS011;1435;49.472;10.940;2023-08-01T16:38:44;2.27;;;1.30;;
2854;SDS011;1435;49.472;10.940;2023-08-01T16:43:46;2.40;;;1.77;;
2854;SDS011;1435;49.472;10.940;2023-08-01T16:48:49;1.70;;;1.60;;
2854;SDS011;1435;49.472;10.940;2023-08-01T16:53:51;1.70;;;1.13;;
2854;SDS011;1435;49.472;10.940;2023-08-01T16:58:52;2.53;;;1.70;;
2854;SDS011;1435;49.472;10.940;2023-08-01T17:03:56;1.80;;;1.20;;
2854;SDS011;1435;49.472;10.940;2023-08-01T17:08:58;2.03;;;1.30;;
2854;SDS011;1435;49.472;10.940;2023-08-01T17:14:00;1.87;;;1.57;;
2854;SDS011;1435;49.472;10.940;2023-08-01T17:19:03;2.23;;;1.63;;
2854;SDS011;1435;49.472;10.940;2023-08-01T17:24:05;2.43;;;1.33;;
2854;SDS011;1435;49.472;10.940;2023-08-01T17:29:07;1.53;;;1.20;;
2854;SDS011;1435;49.472;10.940;2023-08-01T17:34:11;1.53;;;1.20;;
2854;SDS011;1435;49.472;10.940;2023-08-01T17:39:12;1.93;;;1.73;;
2854;SDS011;1435;49.472;10.940;2023-08-01T17:44:14;3.40;;;1.90;;
2854;SDS011;1435;49.472;10.940;2023-08-01T17:49:17;2.60;;;1.73;;
2854;SDS011;1435;49.472;10.940;2023-08-01T17:54:19;2.00;;;1.23;;
2854;SDS011;1435;49.472;10.940;2023-08-01T17:59:20;2.30;;;1.30;;
2854;SDS011;1435;49.472;10.940;2023-08-01T18:04:23;1.53;;;1.17;;
2854;SDS011;1435;49.472;10.940;2023-08-01T18:09:25;1.97;;;1.30;;
2854;SDS011;1435;49.472;10.940;2023-08-01T18:14:27;1.83;;;1.27;;
2854;SDS011;1435;49.472;10.940;2023-08-01T18:19:30;3.43;;;1.03;;
2854;SDS011;1435;49.472;10.940;2023-08-01T18:24:31;1.67;;;1.53;;
2854;SDS011;1435;49.472;10.940;2023-08-01T18:29:33;1.37;;;1.10;;
2854;SDS011;1435;49.472;10.940;2023-08-01T18:34:36;3.03;;;1.00;;
2854;SDS011;1435;49.472;10.940;2023-08-01T18:39:38;1.90;;;1.57;;
2854;SDS011;1435;49.472;10.940;2023-08-01T18:44:39;1.90;;;1.50;;
2854;SDS011;1435;49.472;10.940;2023-08-01T18:49:42;2.73;;;1.30;;
2854;SDS011;1435;49.472;10.940;2023-08-01T18:54:48;1.23;;;1.07;;
2854;SDS011;1435;49.472;10.940;2023-08-01T18:59:50;1.83;;;1.60;;
2854;SDS011;1435;49.472;10.940;2023-08-01T19:04:53;2.20;;;1.97;;
2854;SDS011;1435;49.472;10.940;2023-08-01T19:09:55;1.53;;;1.40;;
2854;SDS011;1435;49.472;10.940;2023-08-01T19:14:56;2.10;;;1.20;;
2854;SDS011;1435;49.472;10.940;2023-08-01T19:20:00;2.40;;;1.60;;
2854;SDS011;1435;49.472;10.940;2023-08-01T19:25:02;2.33;;;1.40;;
2854;SDS011;1435;49.472;10.940;2023-08-01T19:30:05;2.23;;;1.47;;
2854;SDS011;1435;49.472;10.940;2023-08-01T19:35:09;2.03;;;1.30;;
2854;SDS011;1435;49.472;10.940;2023-08-01T19:40:11;2.93;;;1.60;;
2854;SDS011;1435;49.472;10.940;2023-08-01T19:45:13;2.37;;;1.90;;
2854;SDS011;1435;49.472;10.940;2023-08-01T19:50:16;3.03;;;1.50;;
2854;SDS011;1435;49.472;10.940;2023-08-01T19:55:19;2.97;;;1.57;;
2854;SDS011;1435;49.472;10.940;2023-08-01T20:00:21;2.37;;;1.50;;
2854;SDS011;1435;49.472;10.940;2023-08-01T20:05:24;3.80;;;1.90;;
2854;SDS011;1435;49.472;10.940;2023-08-01T20:10:26;1.50;;;1.40;;
2854;SDS011;1435;49.472;10.940;2023-08-01T20:15:28;5.73;;;1.87;;
2854;SDS011;1435;49.472;10.940;2023-08-01T20:20:31;2.30;;;1.67;;
2854;SDS011;1435;49.472;10.940;2023-08-01T20:25:32;3.10;;;1.33;;
2854;SDS011;1435;49.472;10.940;2023-08-01T20:30:36;2.20;;;1.60;;
2854;SDS011;1435;49.472;10.940;2023-08-01T20:35:42;2.20;;;1.20;;
2854;SDS011;1435;49.472;10.940;2023-08-01T20:40:44;1.37;;;1.20;;
2854;SDS011;1435;49.472;10.940;2023-08-01T20:45:46;1.80;;;1.70;;
2854;SDS011;1435;49.472;10.940;2023-08-01T20:50:49;1.97;;;1.60;;
2854;SDS011;1435;49.472;10.940;2023-08-01T20:55:50;1.47;;;1.37;;
2854;SDS011;1435;49.472;10.940;2023-08-01T21:00:56;1.43;;;1.33;;
2854;SDS011;1435;49.472;10.940;2023-08-01T21:06:00;2.07;;;1.30;;
2854;SDS011;1435;49.472;10.940;2023-08-01T21:11:08;2.93;;;1.63;;
2854;SDS011;1435;49.472;10.940;2023-08-01T21:16:10;3.83;;;1.87;;
2854;SDS011;1435;49.472;10.940;2023-08-01T21:21:14;2.50;;;1.57;;
2854;SDS011;1435;49.472;10.940;2023-08-01T21:26:16;2.77;;;1.30;;
2854;SDS011;1435;49.472;10.940;2023-08-01T21:31:17;1.63;;;1.50;;
2854;SDS011;1435;49.472;10.940;2023-08-01T21:36:20;2.30;;;1.20;;
2854;SDS011;1435;49.472;10.940;2023-08-01T21:41:22;3.30;;;1.77;;
2854;SDS011;1435;49.472;10.940;2023-08-01T21:46:24;2.37;;;1.60;;
2854;SDS011;1435;49.472;10.940;2023-08-01T21:51:27;2.20;;;1.87;;
2854;SDS011;1435;49.472;10.940;2023-08-01T21:56:29;2.87;;;1.80;;
2854;SDS011;1435;49.472;10.940;2023-08-01T22:01:31;3.30;;;2.00;;
2854;SDS011;1435;49.472;10.940;2023-08-01T22:06:34;2.20;;;2.00;;
2854;SDS011;1435;49.472;10.940;2023-08-01T22:11:35;1.50;;;1.40;;
2854;SDS011;1435;49.472;10.940;2023-08-01T22:16:37;2.10;;;1.90;;
2854;SDS011;1435;49.472;10.940;2023-08-01T22:21:40;2.03;;;1.83;;
2854;SDS011;1435;49.472;10.940;2023-08-01T22:26:42;2.33;;;1.97;;
2854;SDS011;1435;49.472;10.940;2023-08-01T22:31:43;2.80;;;2.27;;
2854;SDS011;1435;49.472;10.940;2023-08-01T22:36:46;4.43;;;2.30;;
2854;SDS011;1435;49.472;10.940;2023-08-01T22:41:48;4.13;;;2.47;;
2854;SDS011;1435;49.472;10.940;2023-08-01T22:46:50;3.13;;;2.50;;
2854;SDS011;1435;49.472;10.940;2023-08-01T22:51:53;3.23;;;2.30;;
2854;SDS011;1435;49.472;10.940;2023-08-01T22:56:54;5.50;;;2.03;;
2854;SDS011;1435;49.472;10.940;2023-08-01T23:01:56;3.80;;;2.27;;
2854;SDS011;1435;49.472;10.940;2023-08-01T23:06:59;3.43;;;2.27;;
2854;SDS011;1435;49.472;10.940;2023-08-01T23:12:01;3.07;;;2.77;;
2854;SDS011;1435;49.472;10.940;2023-08-01T23:17:03;3.00;;;2.40;;
2854;SDS011;1435;49.472;10.940;2023-08-01T23:22:06;3.00;;;2.37;;
2854;SDS011;1435;49.472;10.940;2023-08-01T23:27:09;4.00;;;2.20;;
2854;SDS011;1435;49.472;10.940;2023-08-01T23:32:11;2.90;;;2.20;;
2854;SDS011;1435;49.472;10.940;2023-08-01T23:37:15;3.47;;;2.10;;
2854;SDS011;1435;49.472;10.940;2023-08-01T23:42:16;2.47;;;2.27;;
2854;SDS011;1435;49.472;10.940;2023-08-01T23:47:18;3.57;;;2.13;;
2854;SDS011;1435;49.472;10.940;2023-08-01T23:52:21;3.87;;;2.83;;
2854;SDS011;1435;49.472;10.940;2023-08-01T23:57:23;2.80;;;2.40;;
